sensor_id;sensor_type;location;lat;lon;timestamp;temperature;humidity
5130;DHT22;2583;50.946;6.954;2022-11-28T00:01:27;7.80;99.90
5130;DHT22;2583;50.946;6.954;2022-11-28T00:03:54;7.80;99.90
5130;DHT22;2583;50.946;6.954;2022-11-28T00:06:21;7.80;99.90
5130;DHT22;2583;50.946;6.954;2022-11-28T00:08:48;7.90;99.90
5130;DHT22;2583;50.946;6.954;2022-11-28T00:11:16;7.80;99.90
5130;DHT22;2583;50.946;6.954;2022-11-28T00:13:43;7.80;99.90
5130;DHT22;2583;50.946;6.954;2022-11-28T00:16:19;7.80;99.90
5130;DHT22;2583;50.946;6.954;2022-11-28T00:18:48;7.80;99.90
5130;DHT22;2583;50.946;6.954;2022-11-28T00:21:16;7.80;99.90
5130;DHT22;2583;50.946;6.954;2022-11-28T00:23:44;7.80;99.90
5130;DHT22;2583;50.946;6.954;2022-11-28T00:26:31;7.70;99.90
5130;DHT22;2583;50.946;6.954;2022-11-28T00:28:58;7.80;99.90
5130;DHT22;2583;50.946;6.954;2022-11-28T00:31:31;7.80;99.90
5130;DHT22;2583;50.946;6.954;2022-11-28T00:33:59;7.70;99.90
5130;DHT22;2583;50.946;6.954;2022-11-28T00:36:28;7.70;99.90
5130;DHT22;2583;50.946;6.954;2022-11-28T00:38:55;7.70;99.90
5130;DHT22;2583;50.946;6.954;2022-11-28T00:41:24;7.70;99.90
5130;DHT22;2583;50.946;6.954;2022-11-28T00:43:52;7.70;99.90
5130;DHT22;2583;50.946;6.954;2022-11-28T00:46:20;7.70;99.90
5130;DHT22;2583;50.946;6.954;2022-11-28T00:48:48;7.70;99.90
5130;DHT22;2583;50.946;6.954;2022-11-28T00:51:24;7.70;99.90
5130;DHT22;2583;50.946;6.954;2022-11-28T00:53:53;7.70;99.90
5130;DHT22;2583;50.946;6.954;2022-11-28T00:56:29;7.60;99.90
5130;DHT22;2583;50.946;6.954;2022-11-28T00:58:56;7.60;99.90
5130;DHT22;2583;50.946;6.954;2022-11-28T01:01:32;7.60;99.90
5130;DHT22;2583;50.946;6.954;2022-11-28T01:04:01;7.60;99.90
5130;DHT22;2583;50.946;6.954;2022-11-28T01:06:34;7.60;99.90
5130;DHT22;2583;50.946;6.954;2022-11-28T01:09:08;7.60;99.90
5130;DHT22;2583;50.946;6.954;2022-11-28T01:11:40;7.50;99.90
5130;DHT22;2583;50.946;6.954;2022-11-28T01:14:07;7.50;99.90
5130;DHT22;2583;50.946;6.954;2022-11-28T01:16:34;7.50;99.90
5130;DHT22;2583;50.946;6.954;2022-11-28T01:19:01;7.50;99.90
5130;DHT22;2583;50.946;6.954;2022-11-28T01:21:28;7.50;99.90
5130;DHT22;2583;50.946;6.954;2022-11-28T01:23:55;7.50;99.90
5130;DHT22;2583;50.946;6.954;2022-11-28T01:26:26;7.50;99.90
5130;DHT22;2583;50.946;6.954;2022-11-28T01:28:54;7.50;99.90
5130;DHT22;2583;50.946;6.954;2022-11-28T01:31:24;7.50;99.90
5130;DHT22;2583;50.946;6.954;2022-11-28T01:33:52;7.50;99.90
5130;DHT22;2583;50.946;6.954;2022-11-28T01:36:20;7.50;99.90
5130;DHT22;2583;50.946;6.954;2022-11-28T01:38:48;7.50;99.90
5130;DHT22;2583;50.946;6.954;2022-11-28T01:41:18;7.40;99.90
5130;DHT22;2583;50.946;6.954;2022-11-28T01:44:04;7.40;99.90
5130;DHT22;2583;50.946;6.954;2022-11-28T01:46:33;7.40;99.90
5130;DHT22;2583;50.946;6.954;2022-11-28T01:49:09;7.50;99.90
5130;DHT22;2583;50.946;6.954;2022-11-28T01:51:38;7.50;99.90
5130;DHT22;2583;50.946;6.954;2022-11-28T01:54:06;7.50;99.90
5130;DHT22;2583;50.946;6.954;2022-11-28T01:56:48;7.40;99.90
5130;DHT22;2583;50.946;6.954;2022-11-28T01:59:18;7.50;99.90
5130;DHT22;2583;50.946;6.954;2022-11-28T02:01:45;7.50;99.90
5130;DHT22;2583;50.946;6.954;2022-11-28T02:04:13;7.50;99.90
5130;DHT22;2583;50.946;6.954;2022-11-28T02:06:40;7.50;99.90
5130;DHT22;2583;50.946;6.954;2022-11-28T02:09:15;7.50;99.90
5130;DHT22;2583;50.946;6.954;2022-11-28T02:14:47;7.50;99.90
5130;DHT22;2583;50.946;6.954;2022-11-28T02:17:38;7.40;99.90
5130;DHT22;2583;50.946;6.954;2022-11-28T02:23:08;7.40;99.90
5130;DHT22;2583;50.946;6.954;2022-11-28T02:28:40;7.40;99.90
5130;DHT22;2583;50.946;6.954;2022-11-28T02:34:53;7.50;99.90
5130;DHT22;2583;50.946;6.954;2022-11-28T02:37:28;7.60;99.90
5130;DHT22;2583;50.946;6.954;2022-11-28T02:40:26;7.60;99.90
5130;DHT22;2583;50.946;6.954;2022-11-28T02:46:09;7.70;99.90
5130;DHT22;2583;50.946;6.954;2022-11-28T02:51:43;7.60;99.90
5130;DHT22;2583;50.946;6.954;2022-11-28T02:54:10;7.60;99.90
5130;DHT22;2583;50.946;6.954;2022-11-28T02:56:38;7.60;99.90
5130;DHT22;2583;50.946;6.954;2022-11-28T02:59:32;7.60;99.90
5130;DHT22;2583;50.946;6.954;2022-11-28T03:02:17;7.60;99.90
5130;DHT22;2583;50.946;6.954;2022-11-28T03:05:09;7.60;99.90
5130;DHT22;2583;50.946;6.954;2022-11-28T03:15:57;7.50;99.90
5130;DHT22;2583;50.946;6.954;2022-11-28T03:21:29;7.50;99.90
5130;DHT22;2583;50.946;6.954;2022-11-28T03:24:27;7.50;99.90
5130;DHT22;2583;50.946;6.954;2022-11-28T03:27:17;7.40;99.90
5130;DHT22;2583;50.946;6.954;2022-11-28T03:29:56;7.40;99.90
5130;DHT22;2583;50.946;6.954;2022-11-28T03:32:32;7.40;99.90
5130;DHT22;2583;50.946;6.954;2022-11-28T03:35:05;7.40;99.90
5130;DHT22;2583;50.946;6.954;2022-11-28T03:37:36;7.50;99.90
5130;DHT22;2583;50.946;6.954;2022-11-28T03:40:07;7.50;99.90
5130;DHT22;2583;50.946;6.954;2022-11-28T03:42:40;7.50;99.90
5130;DHT22;2583;50.946;6.954;2022-11-28T03:45:14;7.40;99.90
5130;DHT22;2583;50.946;6.954;2022-11-28T03:47:45;7.40;99.90
5130;DHT22;2583;50.946;6.954;2022-11-28T03:51:08;7.40;99.90
5130;DHT22;2583;50.946;6.954;2022-11-28T03:53:16;7.40;99.90
5130;DHT22;2583;50.946;6.954;2022-11-28T03:55:48;7.40;99.90
5130;DHT22;2583;50.946;6.954;2022-11-28T03:58:26;7.40;99.90
5130;DHT22;2583;50.946;6.954;2022-11-28T04:01:05;7.40;99.90
5130;DHT22;2583;50.946;6.954;2022-11-28T04:06:42;7.40;99.90
5130;DHT22;2583;50.946;6.954;2022-11-28T04:09:17;7.40;99.90
5130;DHT22;2583;50.946;6.954;2022-11-28T04:11:58;7.30;99.90
5130;DHT22;2583;50.946;6.954;2022-11-28T04:14:45;7.30;99.90
5130;DHT22;2583;50.946;6.954;2022-11-28T04:17:49;7.30;99.90
5130;DHT22;2583;50.946;6.954;2022-11-28T04:20:41;7.30;99.90
5130;DHT22;2583;50.946;6.954;2022-11-28T04:23:12;7.20;99.90
5130;DHT22;2583;50.946;6.954;2022-11-28T04:25:45;7.30;99.90
5130;DHT22;2583;50.946;6.954;2022-11-28T04:28:17;7.20;99.90
5130;DHT22;2583;50.946;6.954;2022-11-28T04:30:47;7.20;99.90
5130;DHT22;2583;50.946;6.954;2022-11-28T04:33:18;7.20;99.90
5130;DHT22;2583;50.946;6.954;2022-11-28T04:35:47;7.20;99.90
5130;DHT22;2583;50.946;6.954;2022-11-28T04:38:16;7.10;99.90
5130;DHT22;2583;50.946;6.954;2022-11-28T04:40:48;7.10;99.90
5130;DHT22;2583;50.946;6.954;2022-11-28T04:43:20;7.10;99.90
5130;DHT22;2583;50.946;6.954;2022-11-28T04:45:55;7.10;99.90
5130;DHT22;2583;50.946;6.954;2022-11-28T04:48:22;7.10;99.90
5130;DHT22;2583;50.946;6.954;2022-11-28T04:51:17;7.10;99.90
5130;DHT22;2583;50.946;6.954;2022-11-28T04:54:12;7.10;99.90
5130;DHT22;2583;50.946;6.954;2022-11-28T04:56:46;7.00;99.90
5130;DHT22;2583;50.946;6.954;2022-11-28T04:59:16;7.00;99.90
5130;DHT22;2583;50.946;6.954;2022-11-28T05:01:46;7.10;99.90
5130;DHT22;2583;50.946;6.954;2022-11-28T05:04:14;7.10;99.90
5130;DHT22;2583;50.946;6.954;2022-11-28T05:06:42;7.10;99.90
5130;DHT22;2583;50.946;6.954;2022-11-28T05:09:13;7.10;99.90
5130;DHT22;2583;50.946;6.954;2022-11-28T05:11:40;7.10;99.90
5130;DHT22;2583;50.946;6.954;2022-11-28T05:14:07;7.10;99.90
5130;DHT22;2583;50.946;6.954;2022-11-28T05:16:34;7.10;99.90
5130;DHT22;2583;50.946;6.954;2022-11-28T05:19:01;7.20;99.90
5130;DHT22;2583;50.946;6.954;2022-11-28T05:21:28;7.10;99.90
5130;DHT22;2583;50.946;6.954;2022-11-28T05:23:55;7.10;99.90
5130;DHT22;2583;50.946;6.954;2022-11-28T05:26:21;7.10;99.90
5130;DHT22;2583;50.946;6.954;2022-11-28T05:28:49;7.10;99.90
5130;DHT22;2583;50.946;6.954;2022-11-28T05:31:18;7.20;99.90
5130;DHT22;2583;50.946;6.954;2022-11-28T05:33:46;7.20;99.90
5130;DHT22;2583;50.946;6.954;2022-11-28T05:36:13;7.20;99.90
5130;DHT22;2583;50.946;6.954;2022-11-28T05:38:41;7.20;99.90
5130;DHT22;2583;50.946;6.954;2022-11-28T05:41:11;7.30;99.90
5130;DHT22;2583;50.946;6.954;2022-11-28T05:43:43;7.30;99.90
5130;DHT22;2583;50.946;6.954;2022-11-28T05:46:10;7.30;99.90
5130;DHT22;2583;50.946;6.954;2022-11-28T05:48:37;7.30;99.90
5130;DHT22;2583;50.946;6.954;2022-11-28T05:51:04;7.30;99.90
5130;DHT22;2583;50.946;6.954;2022-11-28T05:53:31;7.30;99.90
5130;DHT22;2583;50.946;6.954;2022-11-28T05:55:57;7.30;99.90
5130;DHT22;2583;50.946;6.954;2022-11-28T05:58:24;7.30;99.90
5130;DHT22;2583;50.946;6.954;2022-11-28T06:00:51;7.30;99.90
5130;DHT22;2583;50.946;6.954;2022-11-28T06:03:18;7.30;99.90
5130;DHT22;2583;50.946;6.954;2022-11-28T06:05:44;7.30;99.90
5130;DHT22;2583;50.946;6.954;2022-11-28T06:08:11;7.30;99.90
5130;DHT22;2583;50.946;6.954;2022-11-28T06:10:38;7.20;99.90
5130;DHT22;2583;50.946;6.954;2022-11-28T06:13:05;7.20;99.90
5130;DHT22;2583;50.946;6.954;2022-11-28T06:15:32;7.30;99.90
5130;DHT22;2583;50.946;6.954;2022-11-28T06:18:04;7.30;99.90
5130;DHT22;2583;50.946;6.954;2022-11-28T06:20:33;7.30;99.90
5130;DHT22;2583;50.946;6.954;2022-11-28T06:23:00;7.30;99.90
5130;DHT22;2583;50.946;6.954;2022-11-28T06:25:27;7.30;99.90
5130;DHT22;2583;50.946;6.954;2022-11-28T06:27:54;7.20;99.90
5130;DHT22;2583;50.946;6.954;2022-11-28T06:30:21;7.20;99.90
5130;DHT22;2583;50.946;6.954;2022-11-28T06:32:48;7.10;99.90
5130;DHT22;2583;50.946;6.954;2022-11-28T06:35:14;7.00;99.90
5130;DHT22;2583;50.946;6.954;2022-11-28T06:37:41;7.00;99.90
5130;DHT22;2583;50.946;6.954;2022-11-28T06:40:08;7.00;99.90
5130;DHT22;2583;50.946;6.954;2022-11-28T06:42:35;7.10;99.90
5130;DHT22;2583;50.946;6.954;2022-11-28T06:45:03;7.00;99.90
5130;DHT22;2583;50.946;6.954;2022-11-28T06:47:30;7.10;99.90
5130;DHT22;2583;50.946;6.954;2022-11-28T06:49:57;7.00;99.90
5130;DHT22;2583;50.946;6.954;2022-11-28T06:52:24;7.00;99.90
5130;DHT22;2583;50.946;6.954;2022-11-28T06:54:52;7.00;99.90
5130;DHT22;2583;50.946;6.954;2022-11-28T06:57:18;7.00;99.90
5130;DHT22;2583;50.946;6.954;2022-11-28T06:59:47;7.10;99.90
5130;DHT22;2583;50.946;6.954;2022-11-28T07:02:14;7.10;99.90
5130;DHT22;2583;50.946;6.954;2022-11-28T07:04:41;7.10;99.90
5130;DHT22;2583;50.946;6.954;2022-11-28T07:07:07;7.20;99.90
5130;DHT22;2583;50.946;6.954;2022-11-28T07:09:40;7.20;99.90
5130;DHT22;2583;50.946;6.954;2022-11-28T07:12:07;7.20;99.90
5130;DHT22;2583;50.946;6.954;2022-11-28T07:14:34;7.20;99.90
5130;DHT22;2583;50.946;6.954;2022-11-28T07:17:01;7.10;99.90
5130;DHT22;2583;50.946;6.954;2022-11-28T07:19:28;7.20;99.90
5130;DHT22;2583;50.946;6.954;2022-11-28T07:21:55;7.20;99.90
5130;DHT22;2583;50.946;6.954;2022-11-28T07:24:21;7.20;99.90
5130;DHT22;2583;50.946;6.954;2022-11-28T07:26:48;7.10;99.90
5130;DHT22;2583;50.946;6.954;2022-11-28T07:29:16;7.20;99.90
5130;DHT22;2583;50.946;6.954;2022-11-28T07:31:43;7.20;99.90
5130;DHT22;2583;50.946;6.954;2022-11-28T07:34:10;7.20;99.90
5130;DHT22;2583;50.946;6.954;2022-11-28T07:36:37;7.20;99.90
5130;DHT22;2583;50.946;6.954;2022-11-28T07:39:06;7.20;99.90
5130;DHT22;2583;50.946;6.954;2022-11-28T07:41:34;7.20;99.90
5130;DHT22;2583;50.946;6.954;2022-11-28T07:44:02;7.20;99.90
5130;DHT22;2583;50.946;6.954;2022-11-28T07:46:30;7.20;99.90
5130;DHT22;2583;50.946;6.954;2022-11-28T07:48:57;7.20;99.90
5130;DHT22;2583;50.946;6.954;2022-11-28T07:51:27;7.20;99.90
5130;DHT22;2583;50.946;6.954;2022-11-28T07:53:54;7.20;99.90
5130;DHT22;2583;50.946;6.954;2022-11-28T07:56:27;7.20;99.90
5130;DHT22;2583;50.946;6.954;2022-11-28T07:59:10;7.20;99.90
5130;DHT22;2583;50.946;6.954;2022-11-28T08:01:37;7.30;99.90
5130;DHT22;2583;50.946;6.954;2022-11-28T08:04:06;7.20;99.90
5130;DHT22;2583;50.946;6.954;2022-11-28T08:06:38;7.20;99.90
5130;DHT22;2583;50.946;6.954;2022-11-28T08:09:06;7.30;99.90
5130;DHT22;2583;50.946;6.954;2022-11-28T08:11:33;7.40;99.90
5130;DHT22;2583;50.946;6.954;2022-11-28T08:14:01;7.40;99.90
5130;DHT22;2583;50.946;6.954;2022-11-28T08:16:29;7.40;99.90
5130;DHT22;2583;50.946;6.954;2022-11-28T08:18:59;7.40;99.90
5130;DHT22;2583;50.946;6.954;2022-11-28T08:21:30;7.40;99.90
5130;DHT22;2583;50.946;6.954;2022-11-28T08:23:59;7.50;99.90
5130;DHT22;2583;50.946;6.954;2022-11-28T08:26:28;7.40;99.90
5130;DHT22;2583;50.946;6.954;2022-11-28T08:28:57;7.40;99.90
5130;DHT22;2583;50.946;6.954;2022-11-28T08:31:30;7.40;99.90
5130;DHT22;2583;50.946;6.954;2022-11-28T08:33:59;7.40;99.90
5130;DHT22;2583;50.946;6.954;2022-11-28T08:36:26;7.50;99.90
5130;DHT22;2583;50.946;6.954;2022-11-28T08:38:55;7.50;99.90
5130;DHT22;2583;50.946;6.954;2022-11-28T08:41:42;7.60;99.90
5130;DHT22;2583;50.946;6.954;2022-11-28T08:44:09;7.60;99.90
5130;DHT22;2583;50.946;6.954;2022-11-28T08:46:35;7.60;99.90
5130;DHT22;2583;50.946;6.954;2022-11-28T08:49:02;7.60;99.90
5130;DHT22;2583;50.946;6.954;2022-11-28T08:51:30;7.60;99.90
5130;DHT22;2583;50.946;6.954;2022-11-28T08:53:57;7.60;99.90
5130;DHT22;2583;50.946;6.954;2022-11-28T08:56:26;7.60;99.90
5130;DHT22;2583;50.946;6.954;2022-11-28T08:58:53;7.60;99.90
5130;DHT22;2583;50.946;6.954;2022-11-28T09:01:22;7.70;99.90
5130;DHT22;2583;50.946;6.954;2022-11-28T09:03:50;7.70;99.90
5130;DHT22;2583;50.946;6.954;2022-11-28T09:06:18;7.70;99.90
5130;DHT22;2583;50.946;6.954;2022-11-28T09:08:47;7.80;99.90
5130;DHT22;2583;50.946;6.954;2022-11-28T09:11:16;7.70;99.90
5130;DHT22;2583;50.946;6.954;2022-11-28T09:13:43;7.80;99.90
5130;DHT22;2583;50.946;6.954;2022-11-28T09:16:10;7.80;99.90
5130;DHT22;2583;50.946;6.954;2022-11-28T09:18:37;7.80;99.90
5130;DHT22;2583;50.946;6.954;2022-11-28T09:21:06;7.80;99.90
5130;DHT22;2583;50.946;6.954;2022-11-28T09:23:36;7.80;99.90
5130;DHT22;2583;50.946;6.954;2022-11-28T09:26:17;7.80;99.90
5130;DHT22;2583;50.946;6.954;2022-11-28T09:28:45;7.90;99.90
5130;DHT22;2583;50.946;6.954;2022-11-28T09:31:13;7.90;99.90
5130;DHT22;2583;50.946;6.954;2022-11-28T09:33:40;7.90;99.90
5130;DHT22;2583;50.946;6.954;2022-11-28T09:36:13;7.90;99.90
5130;DHT22;2583;50.946;6.954;2022-11-28T09:38:41;7.90;99.90
5130;DHT22;2583;50.946;6.954;2022-11-28T09:46:34;8.00;99.90
5130;DHT22;2583;50.946;6.954;2022-11-28T09:49:21;8.00;99.90
5130;DHT22;2583;50.946;6.954;2022-11-28T09:52:02;8.00;99.90
5130;DHT22;2583;50.946;6.954;2022-11-28T09:54:46;8.00;99.90
5130;DHT22;2583;50.946;6.954;2022-11-28T09:57:32;8.00;99.90
5130;DHT22;2583;50.946;6.954;2022-11-28T10:00:00;8.00;99.90
5130;DHT22;2583;50.946;6.954;2022-11-28T10:02:42;8.00;99.90
5130;DHT22;2583;50.946;6.954;2022-11-28T10:05:20;8.10;99.90
5130;DHT22;2583;50.946;6.954;2022-11-28T10:11:05;8.10;99.90
5130;DHT22;2583;50.946;6.954;2022-11-28T10:16:52;8.10;99.90
5130;DHT22;2583;50.946;6.954;2022-11-28T10:19:51;8.20;99.90
5130;DHT22;2583;50.946;6.954;2022-11-28T10:23:00;8.20;99.90
5130;DHT22;2583;50.946;6.954;2022-11-28T10:25:36;8.20;99.90
5130;DHT22;2583;50.946;6.954;2022-11-28T10:28:06;8.20;99.90
5130;DHT22;2583;50.946;6.954;2022-11-28T10:30:40;8.30;99.90
5130;DHT22;2583;50.946;6.954;2022-11-28T10:33:24;8.30;99.90
5130;DHT22;2583;50.946;6.954;2022-11-28T10:35:54;8.30;99.90
5130;DHT22;2583;50.946;6.954;2022-11-28T10:38:25;8.30;99.90
5130;DHT22;2583;50.946;6.954;2022-11-28T10:43:35;8.30;99.90
5130;DHT22;2583;50.946;6.954;2022-11-28T10:46:44;8.30;99.90
5130;DHT22;2583;50.946;6.954;2022-11-28T10:58:17;8.40;99.90
5130;DHT22;2583;50.946;6.954;2022-11-28T11:00:47;8.50;99.90
5130;DHT22;2583;50.946;6.954;2022-11-28T11:03:27;8.50;99.90
5130;DHT22;2583;50.946;6.954;2022-11-28T11:05:55;8.60;99.90
5130;DHT22;2583;50.946;6.954;2022-11-28T11:08:28;8.60;99.90
5130;DHT22;2583;50.946;6.954;2022-11-28T11:16:50;8.70;99.90
5130;DHT22;2583;50.946;6.954;2022-11-28T11:19:27;8.70;99.90
5130;DHT22;2583;50.946;6.954;2022-11-28T11:24:31;8.60;99.90
5130;DHT22;2583;50.946;6.954;2022-11-28T11:27:12;8.60;99.90
5130;DHT22;2583;50.946;6.954;2022-11-28T11:29:40;8.60;99.90
5130;DHT22;2583;50.946;6.954;2022-11-28T11:32:27;8.60;99.90
5130;DHT22;2583;50.946;6.954;2022-11-28T11:34:58;8.60;99.90
5130;DHT22;2583;50.946;6.954;2022-11-28T11:37:34;8.60;99.90
5130;DHT22;2583;50.946;6.954;2022-11-28T11:40:16;8.60;99.90
5130;DHT22;2583;50.946;6.954;2022-11-28T11:42:55;8.60;99.90
5130;DHT22;2583;50.946;6.954;2022-11-28T11:45:25;8.50;99.90
5130;DHT22;2583;50.946;6.954;2022-11-28T11:47:52;8.40;99.90
5130;DHT22;2583;50.946;6.954;2022-11-28T11:50:22;8.50;99.90
5130;DHT22;2583;50.946;6.954;2022-11-28T11:55:46;8.50;99.90
5130;DHT22;2583;50.946;6.954;2022-11-28T11:58:24;8.40;99.90
5130;DHT22;2583;50.946;6.954;2022-11-28T12:00:55;8.50;99.90
5130;DHT22;2583;50.946;6.954;2022-11-28T12:03:27;8.40;99.90
5130;DHT22;2583;50.946;6.954;2022-11-28T12:05:59;8.40;99.90
5130;DHT22;2583;50.946;6.954;2022-11-28T12:08:50;8.40;99.90
5130;DHT22;2583;50.946;6.954;2022-11-28T12:11:26;8.40;99.90
5130;DHT22;2583;50.946;6.954;2022-11-28T12:13:56;8.40;99.90
5130;DHT22;2583;50.946;6.954;2022-11-28T12:16:51;8.50;99.90
5130;DHT22;2583;50.946;6.954;2022-11-28T12:22:33;8.50;99.90
5130;DHT22;2583;50.946;6.954;2022-11-28T12:25:28;8.40;99.90
5130;DHT22;2583;50.946;6.954;2022-11-28T12:28:26;8.50;99.90
5130;DHT22;2583;50.946;6.954;2022-11-28T12:59:47;8.70;99.90
5130;DHT22;2583;50.946;6.954;2022-11-28T13:05:37;8.80;99.90
5130;DHT22;2583;50.946;6.954;2022-11-28T13:08:33;8.80;99.90
5130;DHT22;2583;50.946;6.954;2022-11-28T13:24:42;8.80;99.90
5130;DHT22;2583;50.946;6.954;2022-11-28T13:27:35;8.80;99.90
5130;DHT22;2583;50.946;6.954;2022-11-28T13:30:23;8.80;99.90
5130;DHT22;2583;50.946;6.954;2022-11-28T13:35:44;8.90;99.90
5130;DHT22;2583;50.946;6.954;2022-11-28T13:44:17;8.90;99.90
5130;DHT22;2583;50.946;6.954;2022-11-28T13:46:46;9.00;99.90
5130;DHT22;2583;50.946;6.954;2022-11-28T13:49:22;9.00;99.90
5130;DHT22;2583;50.946;6.954;2022-11-28T13:54:51;9.00;99.90
5130;DHT22;2583;50.946;6.954;2022-11-28T13:57:26;9.00;99.90
5130;DHT22;2583;50.946;6.954;2022-11-28T14:00:03;9.00;99.90
5130;DHT22;2583;50.946;6.954;2022-11-28T14:02:35;9.00;99.90
5130;DHT22;2583;50.946;6.954;2022-11-28T14:05:03;9.10;99.90
5130;DHT22;2583;50.946;6.954;2022-11-28T14:07:32;9.00;99.90
5130;DHT22;2583;50.946;6.954;2022-11-28T14:26:58;9.10;99.90
5130;DHT22;2583;50.946;6.954;2022-11-28T14:29:35;9.10;99.90
5130;DHT22;2583;50.946;6.954;2022-11-28T14:32:04;9.10;99.90
5130;DHT22;2583;50.946;6.954;2022-11-28T14:34:51;9.10;99.90
5130;DHT22;2583;50.946;6.954;2022-11-28T14:39:48;9.20;99.90
5130;DHT22;2583;50.946;6.954;2022-11-28T14:45:37;9.10;99.90
5130;DHT22;2583;50.946;6.954;2022-11-28T14:48:12;9.10;99.90
5130;DHT22;2583;50.946;6.954;2022-11-28T14:56:23;9.20;99.90
5130;DHT22;2583;50.946;6.954;2022-11-28T14:58:55;9.20;99.90
5130;DHT22;2583;50.946;6.954;2022-11-28T15:07:01;9.30;99.90
5130;DHT22;2583;50.946;6.954;2022-11-28T15:09:45;9.30;99.90
5130;DHT22;2583;50.946;6.954;2022-11-28T15:12:31;9.20;99.90
5130;DHT22;2583;50.946;6.954;2022-11-28T15:15:00;9.20;99.90
5130;DHT22;2583;50.946;6.954;2022-11-28T15:17:31;9.20;99.90
5130;DHT22;2583;50.946;6.954;2022-11-28T15:20:06;9.20;99.90
5130;DHT22;2583;50.946;6.954;2022-11-28T15:27:48;9.30;99.90
5130;DHT22;2583;50.946;6.954;2022-11-28T15:30:22;9.30;99.90
5130;DHT22;2583;50.946;6.954;2022-11-28T15:33:00;9.30;99.90
5130;DHT22;2583;50.946;6.954;2022-11-28T15:35:27;9.30;99.90
5130;DHT22;2583;50.946;6.954;2022-11-28T15:37:57;9.30;99.90
5130;DHT22;2583;50.946;6.954;2022-11-28T15:40:35;9.30;99.90
5130;DHT22;2583;50.946;6.954;2022-11-28T15:43:03;9.30;99.90
5130;DHT22;2583;50.946;6.954;2022-11-28T15:45:38;9.40;99.90
5130;DHT22;2583;50.946;6.954;2022-11-28T15:50:52;9.40;1.00
5130;DHT22;2583;50.946;6.954;2022-11-28T15:53:20;9.40;1.00
5130;DHT22;2583;50.946;6.954;2022-11-28T15:55:47;9.40;1.00
5130;DHT22;2583;50.946;6.954;2022-11-28T15:58:31;9.40;1.00
5130;DHT22;2583;50.946;6.954;2022-11-28T16:03:33;9.40;1.00
5130;DHT22;2583;50.946;6.954;2022-11-28T16:06:02;9.40;1.00
5130;DHT22;2583;50.946;6.954;2022-11-28T16:08:44;9.40;1.00
5130;DHT22;2583;50.946;6.954;2022-11-28T16:11:16;9.40;1.00
5130;DHT22;2583;50.946;6.954;2022-11-28T16:13:44;9.40;1.00
5130;DHT22;2583;50.946;6.954;2022-11-28T16:16:15;9.40;1.00
5130;DHT22;2583;50.946;6.954;2022-11-28T16:18:47;9.40;1.00
5130;DHT22;2583;50.946;6.954;2022-11-28T16:21:17;9.50;1.00
5130;DHT22;2583;50.946;6.954;2022-11-28T16:23:44;9.50;1.00
5130;DHT22;2583;50.946;6.954;2022-11-28T16:26:33;9.40;1.00
5130;DHT22;2583;50.946;6.954;2022-11-28T16:31:34;9.40;99.90
5130;DHT22;2583;50.946;6.954;2022-11-28T16:34:01;9.40;70.20
5130;DHT22;2583;50.946;6.954;2022-11-28T16:41:40;9.40;99.90
5130;DHT22;2583;50.946;6.954;2022-11-28T16:44:13;9.40;99.90
5130;DHT22;2583;50.946;6.954;2022-11-28T16:46:55;9.40;99.90
5130;DHT22;2583;50.946;6.954;2022-11-28T16:49:37;9.40;18.90
5130;DHT22;2583;50.946;6.954;2022-11-28T16:54:54;9.40;99.90
5130;DHT22;2583;50.946;6.954;2022-11-28T16:57:22;9.30;99.90
5130;DHT22;2583;50.946;6.954;2022-11-28T16:59:57;9.40;99.90
5130;DHT22;2583;50.946;6.954;2022-11-28T17:02:24;9.30;99.90
5130;DHT22;2583;50.946;6.954;2022-11-28T17:04:54;9.20;99.90
5130;DHT22;2583;50.946;6.954;2022-11-28T17:07:23;9.20;99.90
5130;DHT22;2583;50.946;6.954;2022-11-28T17:09:50;9.20;99.90
5130;DHT22;2583;50.946;6.954;2022-11-28T17:12:28;9.20;99.90
5130;DHT22;2583;50.946;6.954;2022-11-28T17:14:58;9.30;1.00
5130;DHT22;2583;50.946;6.954;2022-11-28T17:17:26;9.30;99.90
5130;DHT22;2583;50.946;6.954;2022-11-28T17:19:53;9.30;99.90
5130;DHT22;2583;50.946;6.954;2022-11-28T17:22:22;9.30;99.90
5130;DHT22;2583;50.946;6.954;2022-11-28T17:24:54;9.30;99.90
5130;DHT22;2583;50.946;6.954;2022-11-28T17:27:22;9.30;1.00
5130;DHT22;2583;50.946;6.954;2022-11-28T17:29:49;9.30;1.00
5130;DHT22;2583;50.946;6.954;2022-11-28T17:32:16;9.30;99.90
5130;DHT22;2583;50.946;6.954;2022-11-28T17:34:43;9.30;99.90
5130;DHT22;2583;50.946;6.954;2022-11-28T17:37:11;9.30;99.90
5130;DHT22;2583;50.946;6.954;2022-11-28T17:39:38;9.30;99.90
5130;DHT22;2583;50.946;6.954;2022-11-28T17:42:29;9.30;99.90
5130;DHT22;2583;50.946;6.954;2022-11-28T17:44:56;9.30;99.90
5130;DHT22;2583;50.946;6.954;2022-11-28T17:47:22;9.30;99.90
5130;DHT22;2583;50.946;6.954;2022-11-28T17:49:49;9.40;99.90
5130;DHT22;2583;50.946;6.954;2022-11-28T17:52:17;9.40;99.90
5130;DHT22;2583;50.946;6.954;2022-11-28T17:54:45;9.40;99.90
5130;DHT22;2583;50.946;6.954;2022-11-28T17:57:12;9.40;99.90
5130;DHT22;2583;50.946;6.954;2022-11-28T17:59:39;9.40;99.90
5130;DHT22;2583;50.946;6.954;2022-11-28T18:02:09;9.40;99.90
5130;DHT22;2583;50.946;6.954;2022-11-28T18:04:36;9.50;99.90
5130;DHT22;2583;50.946;6.954;2022-11-28T18:07:03;9.50;99.90
5130;DHT22;2583;50.946;6.954;2022-11-28T18:09:30;9.50;99.90
5130;DHT22;2583;50.946;6.954;2022-11-28T18:11:57;9.50;99.90
5130;DHT22;2583;50.946;6.954;2022-11-28T18:14:24;9.50;99.90
5130;DHT22;2583;50.946;6.954;2022-11-28T18:16:51;9.50;99.90
5130;DHT22;2583;50.946;6.954;2022-11-28T18:19:18;9.60;84.80
5130;DHT22;2583;50.946;6.954;2022-11-28T18:21:44;9.60;14.10
5130;DHT22;2583;50.946;6.954;2022-11-28T18:24:11;9.70;29.30
5130;DHT22;2583;50.946;6.954;2022-11-28T18:26:38;9.60;1.00
5130;DHT22;2583;50.946;6.954;2022-11-28T18:29:05;9.70;1.00
5130;DHT22;2583;50.946;6.954;2022-11-28T18:31:33;9.80;1.00
5130;DHT22;2583;50.946;6.954;2022-11-28T18:34:02;9.80;1.00
5130;DHT22;2583;50.946;6.954;2022-11-28T18:36:31;9.80;1.00
5130;DHT22;2583;50.946;6.954;2022-11-28T18:39:00;9.70;99.90
5130;DHT22;2583;50.946;6.954;2022-11-28T18:41:28;9.70;99.90
5130;DHT22;2583;50.946;6.954;2022-11-28T18:43:56;9.70;99.90
5130;DHT22;2583;50.946;6.954;2022-11-28T18:46:24;9.70;99.90
5130;DHT22;2583;50.946;6.954;2022-11-28T18:48:52;9.70;1.00
5130;DHT22;2583;50.946;6.954;2022-11-28T18:51:27;9.70;1.00
5130;DHT22;2583;50.946;6.954;2022-11-28T18:53:55;9.70;99.90
5130;DHT22;2583;50.946;6.954;2022-11-28T18:56:23;9.70;99.90
5130;DHT22;2583;50.946;6.954;2022-11-28T18:58:52;9.70;99.90
5130;DHT22;2583;50.946;6.954;2022-11-28T19:01:20;9.70;99.90
5130;DHT22;2583;50.946;6.954;2022-11-28T19:03:50;9.70;99.90
5130;DHT22;2583;50.946;6.954;2022-11-28T19:06:18;9.70;99.90
5130;DHT22;2583;50.946;6.954;2022-11-28T19:08:45;9.70;1.00
5130;DHT22;2583;50.946;6.954;2022-11-28T19:11:14;9.60;1.00
5130;DHT22;2583;50.946;6.954;2022-11-28T19:13:43;9.60;95.20
5130;DHT22;2583;50.946;6.954;2022-11-28T19:16:14;9.70;1.00
5130;DHT22;2583;50.946;6.954;2022-11-28T19:18:42;9.70;1.00
5130;DHT22;2583;50.946;6.954;2022-11-28T19:21:11;9.70;1.00
5130;DHT22;2583;50.946;6.954;2022-11-28T19:23:39;9.70;99.90
5130;DHT22;2583;50.946;6.954;2022-11-28T19:26:09;9.70;19.70
5130;DHT22;2583;50.946;6.954;2022-11-28T19:28:38;9.70;99.90
5130;DHT22;2583;50.946;6.954;2022-11-28T19:31:09;9.60;99.90
5130;DHT22;2583;50.946;6.954;2022-11-28T19:33:38;9.70;99.90
5130;DHT22;2583;50.946;6.954;2022-11-28T19:36:06;9.60;67.30
5130;DHT22;2583;50.946;6.954;2022-11-28T19:38:34;9.60;61.30
5130;DHT22;2583;50.946;6.954;2022-11-28T19:43:33;9.70;99.90
5130;DHT22;2583;50.946;6.954;2022-11-28T19:46:01;9.70;99.90
5130;DHT22;2583;50.946;6.954;2022-11-28T19:48:29;9.70;62.20
5130;DHT22;2583;50.946;6.954;2022-11-28T19:50:57;9.70;99.90
5130;DHT22;2583;50.946;6.954;2022-11-28T19:53:24;9.70;35.10
5130;DHT22;2583;50.946;6.954;2022-11-28T19:55:51;9.70;14.20